Time;durP1;ratioP1;P1;durP2;ratioP2;P2;SDS_P1;SDS_P2;PMS_P1;PMS_P2;Temp;Humidity;BMP_temperature;BMP_pressure;BME280_temperature;BME280_humidity;BME280_pressure;Samples;Min_cycle;Max_cycle;Signal;HPM_P1;HPM_P2
2023/09/28 00:01:12;;;;;;;;;6.00;6.00;;;;;26.74;45.52;101399.09;5055278;28;46130;-80
2023/09/28 00:03:38;;;;;;;;;6.00;6.00;;;;;26.79;46.06;101414.50;5055547;28;45348;-79
2023/09/28 00:06:04;;;;;;;;;7.00;6.00;;;;;26.66;45.42;101394.75;5055894;28;45394;-79
2023/09/28 00:08:29;;;;;;;;;7.67;5.33;;;;;26.69;45.44;101398.88;5055863;28;45480;-79
2023/09/28 00:10:55;;;;;;;;;8.00;7.33;;;;;26.80;45.50;101421.50;5055557;28;46097;-79
2023/09/28 00:13:20;;;;;;;;;6.33;5.67;;;;;26.60;45.40;101401.69;5056865;28;45537;-80
2023/09/28 00:15:46;;;;;;;;;6.00;6.00;;;;;26.81;45.15;101447.16;5059205;28;45321;-80
2023/09/28 00:18:12;;;;;;;;;7.00;7.00;;;;;26.82;45.71;101446.16;5059192;28;45506;-79
2023/09/28 00:20:38;;;;;;;;;6.00;5.33;;;;;26.81;45.22;101448.00;5059074;28;45324;-79
2023/09/28 00:23:04;;;;;;;;;4.33;4.33;;;;;26.81;45.73;101456.00;5059313;28;45413;-79
2023/09/28 00:25:29;;;;;;;;;6.00;6.00;;;;;26.81;45.73;101444.50;5059335;28;45411;-79
2023/09/28 00:27:55;;;;;;;;;5.00;5.00;;;;;26.63;45.73;101409.31;5059212;28;45235;-79
2023/09/28 00:30:22;;;;;;;;;6.00;5.00;;;;;26.73;44.91;101416.13;5058859;28;47211;-79
2023/09/28 00:32:50;;;;;;;;;5.67;5.67;;;;;26.73;45.16;101422.28;5059096;28;45359;-79
2023/09/28 00:35:16;;;;;;;;;10.00;8.00;;;;;26.82;45.79;101432.81;5057778;28;45501;-79
2023/09/28 00:37:42;;;;;;;;;5.00;4.67;;;;;26.74;45.68;101415.94;5058806;28;45404;-79
2023/09/28 00:40:16;;;;;;;;;6.00;6.00;;;;;26.81;45.80;101425.81;5058763;28;47257;-79
2023/09/28 00:42:46;;;;;;;;;9.00;6.67;;;;;26.52;45.49;101370.66;5058736;28;45341;-79
2023/09/28 00:45:11;;;;;;;;;4.00;4.00;;;;;26.80;45.48;101422.34;5058613;28;45260;-79
2023/09/28 00:47:38;;;;;;;;;5.00;4.67;;;;;26.70;45.06;101403.19;5058768;28;45417;-79
2023/09/28 00:50:09;;;;;;;;;7.33;4.00;;;;;26.51;45.29;101376.22;5057489;28;47150;-79
2023/09/28 00:52:35;;;;;;;;;7.00;5.67;;;;;26.46;45.66;101371.47;5058561;28;45360;-79
2023/09/28 00:55:01;;;;;;;;;5.67;5.33;;;;;26.52;45.32;101384.00;5059001;28;45360;-79
2023/09/28 00:57:27;;;;;;;;;5.67;5.33;;;;;26.78;45.71;101434.25;5058596;28;45468;-79
2023/09/28 00:59:54;;;;;;;;;6.00;6.00;;;;;26.70;45.12;101429.88;5058161;28;46316;-79
2023/09/28 01:02:19;;;;;;;;;6.33;6.33;;;;;26.74;45.29;101445.31;5058534;28;45395;-78
2023/09/28 01:04:45;;;;;;;;;5.00;5.00;;;;;26.69;44.93;101437.06;5058407;28;45292;-79
2023/09/28 01:07:12;;;;;;;;;5.00;5.00;;;;;26.82;45.00;101451.50;5058700;28;45368;-79
2023/09/28 01:09:38;;;;;;;;;4.67;4.33;;;;;26.80;45.19;101459.72;5058486;28;45999;-79
2023/09/28 01:12:06;;;;;;;;;9.00;5.33;;;;;26.76;45.61;101452.28;5058343;28;45331;-79
2023/09/28 01:14:34;;;;;;;;;5.00;5.00;;;;;26.74;44.99;101455.97;5058384;28;45354;-80
2023/09/28 01:17:00;;;;;;;;;5.00;5.00;;;;;26.72;44.95;101457.19;5058413;28;45296;-79
2023/09/28 01:19:26;;;;;;;;;5.33;5.00;;;;;26.80;45.65;101475.72;5058160;28;45441;-79
2023/09/28 01:21:52;;;;;;;;;5.67;5.67;;;;;26.73;45.37;101464.16;5058315;28;45360;-80
2023/09/28 01:24:17;;;;;;;;;4.00;4.00;;;;;26.64;45.37;101439.50;5057972;28;45426;-79
2023/09/28 01:26:43;;;;;;;;;7.67;6.00;;;;;26.73;45.12;101458.81;5057871;28;45331;-79
2023/09/28 01:29:08;;;;;;;;;5.00;5.00;;;;;26.80;45.28;101453.53;5057696;28;45434;-79
2023/09/28 01:31:33;;;;;;;;;5.00;4.67;;;;;26.69;44.70;101447.75;5058126;28;45351;-79
2023/09/28 01:33:59;;;;;;;;;4.00;4.00;;;;;26.80;45.54;101465.06;5058338;28;45266;-79
2023/09/28 01:36:24;;;;;;;;;4.67;4.67;;;;;26.78;44.81;101468.94;5058121;28;45457;-79
2023/09/28 01:38:57;;;;;;;;;6.00;4.00;;;;;26.78;45.52;101474.28;5057800;28;46970;-79
2023/09/28 01:41:23;;;;;;;;;5.33;4.00;;;;;26.77;45.53;101481.44;5058129;28;45416;-80
2023/09/28 01:43:48;;;;;;;;;2.00;2.00;;;;;26.70;45.43;101473.38;5057517;28;45924;-79
2023/09/28 01:46:14;;;;;;;;;5.00;5.00;;;;;26.70;45.02;101476.06;5058046;28;45166;-79
2023/09/28 01:48:39;;;;;;;;;6.33;5.00;;;;;26.76;44.94;101470.97;5057859;28;46232;-79
2023/09/28 01:51:04;;;;;;;;;3.67;3.67;;;;;26.66;45.56;101437.44;5057858;28;45289;-79
2023/09/28 01:53:30;;;;;;;;;3.33;3.33;;;;;26.80;45.44;101457.03;5058046;28;45267;-79
2023/09/28 01:55:59;;;;;;;;;4.33;4.00;;;;;26.80;44.82;101469.56;5057979;28;45379;-79
2023/09/28 01:58:24;;;;;;;;;7.33;5.67;;;;;26.80;45.04;101466.88;5057256;28;47006;-79
2023/09/28 02:00:49;;;;;;;;;4.67;3.33;;;;;26.80;45.04;101466.88;5057554;28;45549;-79
2023/09/28 02:03:15;;;;;;;;;5.00;5.00;;;;;26.76;45.33;101445.09;5058009;28;45342;-79
2023/09/28 02:05:40;;;;;;;;;5.00;5.00;;;;;26.79;45.43;101452.72;5057508;28;45367;-79
2023/09/28 02:08:05;;;;;;;;;4.67;4.67;;;;;26.78;44.86;101455.59;5057612;28;46209;-79
2023/09/28 02:10:32;;;;;;;;;4.67;4.33;;;;;26.68;45.38;101450.59;5057634;28;45293;-79
2023/09/28 02:12:57;;;;;;;;;6.00;5.00;;;;;26.66;45.00;101458.81;5057299;28;45387;-79
2023/09/28 02:15:23;;;;;;;;;7.00;5.33;;;;;26.71;45.35;101464.38;5057466;28;45367;-79
2023/09/28 02:17:49;;;;;;;;;4.67;4.67;;;;;26.79;45.44;101478.56;5057331;28;47123;-79
2023/09/28 02:20:16;;;;;;;;;5.00;4.33;;;;;26.74;45.15;101469.31;5057442;28;45433;-79
2023/09/28 02:22:46;;;;;;;;;5.33;4.00;;;;;26.61;45.07;101443.38;5057472;28;45363;-79
2023/09/28 02:25:15;;;;;;;;;4.00;4.00;;;;;26.73;44.81;101440.97;5057315;28;45459;-78
2023/09/28 02:27:41;;;;;;;;;6.00;5.00;;;;;26.72;45.40;101439.34;5056550;28;47066;-79
2023/09/28 02:30:09;;;;;;;;;4.33;4.00;;;;;26.54;45.20;101415.84;5057225;28;45691;-80
2023/09/28 02:32:34;;;;;;;;;4.67;4.00;;;;;26.67;45.37;101444.44;5057353;28;45325;-79
2023/09/28 02:34:59;;;;;;;;;4.00;4.00;;;;;26.76;45.09;101445.09;5057042;28;45364;-79
2023/09/28 02:37:24;;;;;;;;;3.00;3.00;;;;;26.62;44.88;101417.53;5057010;28;47294;-79
2023/09/28 02:39:50;;;;;;;;;5.00;3.33;;;;;26.79;45.20;101439.38;5057184;28;45332;-79
2023/09/28 02:42:15;;;;;;;;;7.00;3.00;;;;;26.79;44.83;101441.19;5056795;28;45340;-79
2023/09/28 02:44:40;;;;;;;;;3.33;3.33;;;;;26.69;45.25;101433.56;5057151;28;45450;-79
2023/09/28 02:47:06;;;;;;;;;4.00;4.00;;;;;26.69;44.97;101439.72;5056909;28;46029;-79
2023/09/28 02:49:34;;;;;;;;;6.33;4.00;;;;;26.79;45.52;101455.38;5056977;28;45387;-79
2023/09/28 02:52:01;;;;;;;;;4.33;4.33;;;;;26.78;45.36;101460.94;5057043;28;45339;-79
2023/09/28 02:54:26;;;;;;;;;5.00;5.00;;;;;26.78;44.81;101471.59;5056973;28;45777;-79
2023/09/28 02:56:53;;;;;;;;;3.00;3.00;;;;;26.72;45.18;101465.22;5056270;28;46969;-80
2023/09/28 02:59:22;;;;;;;;;3.33;3.00;;;;;26.67;45.19;101456.97;5056826;28;45535;-80
2023/09/28 03:01:48;;;;;;;;;5.00;3.33;;;;;26.72;44.69;101451.88;5056805;28;45464;-79
2023/09/28 03:04:13;;;;;;;;;5.67;4.00;;;;;26.72;44.97;101466.03;5056612;28;45433;-80
2023/09/28 03:06:40;;;;;;;;;4.67;4.33;;;;;26.74;45.51;101473.84;5056683;28;45535;-79
2023/09/28 03:09:07;;;;;;;;;4.33;2.67;;;;;26.68;45.08;101470.09;5056770;28;45313;-79
2023/09/28 03:11:33;;;;;;;;;5.67;3.00;;;;;26.73;45.11;101486.34;5056299;28;45510;-80
2023/09/28 03:13:58;;;;;;;;;7.00;5.67;;;;;26.48;45.32;101451.31;5056591;28;45223;-79
2023/09/28 03:16:23;;;;;;;;;5.00;4.67;;;;;26.76;45.22;101492.31;5055987;28;53050;-80
2023/09/28 03:18:49;;;;;;;;;5.33;4.33;;;;;26.72;45.33;101491.91;5056049;28;52115;-79
2023/09/28 03:21:14;;;;;;;;;5.00;5.00;;;;;26.73;44.76;101490.84;5056540;28;45431;-79
2023/09/28 03:23:40;;;;;;;;;4.00;3.00;;;;;26.76;45.21;101492.31;5056390;28;45344;-80
2023/09/28 03:26:06;;;;;;;;;2.33;2.33;;;;;26.76;45.24;101498.47;5056038;28;45555;-79
2023/09/28 03:28:31;;;;;;;;;5.00;5.00;;;;;26.76;44.88;101502.97;5056105;28;45335;-80
2023/09/28 03:30:56;;;;;;;;;4.00;4.00;;;;;26.76;45.17;101500.31;5056363;28;45313;-80
2023/09/28 03:33:22;;;;;;;;;5.00;3.00;;;;;26.76;45.39;101503.81;5056627;28;45379;-80
2023/09/28 03:35:47;;;;;;;;;4.33;2.33;;;;;26.77;45.24;101510.00;5056046;28;46718;-80
2023/09/28 03:38:12;;;;;;;;;3.00;3.00;;;;;26.72;44.52;101502.56;5056038;28;45376;-79
2023/09/28 03:40:38;;;;;;;;;5.00;3.67;;;;;26.77;45.20;101501.97;5056025;28;45376;-80
2023/09/28 03:43:04;;;;;;;;;4.33;3.67;;;;;26.74;44.69;101497.84;5051322;28;46062;-80
2023/09/28 03:45:29;;;;;;;;;3.00;3.00;;;;;26.68;45.30;101482.63;5035791;28;46179;-80
2023/09/28 03:47:55;;;;;;;;;5.00;4.00;;;;;26.68;45.23;101487.97;5035331;28;45309;-80
2023/09/28 03:50:22;;;;;;;;;3.00;3.00;;;;;26.74;44.67;101492.53;5035956;28;45387;-80
2023/09/28 03:52:48;;;;;;;;;3.00;3.00;;;;;26.77;44.77;101502.81;5036006;28;45455;-80
2023/09/28 03:55:15;;;;;;;;;2.33;2.33;;;;;26.67;44.83;101489.00;5035485;28;47355;-81
2023/09/28 03:57:47;;;;;;;;;4.00;3.67;;;;;26.77;44.99;101505.47;5035814;28;45332;-80
2023/09/28 04:00:16;;;;;;;;;4.33;4.33;;;;;26.74;44.99;101501.34;5034683;28;45300;-80
2023/09/28 04:02:44;;;;;;;;;4.00;4.00;;;;;26.77;45.14;101500.13;5035707;28;45419;-80
2023/09/28 04:05:09;;;;;;;;;5.33;4.00;;;;;26.74;45.25;101495.19;5035367;28;46380;-80
2023/09/28 04:07:35;;;;;;;;;6.00;3.00;;;;;26.65;45.00;101486.50;5035203;28;45431;-79
2023/09/28 04:10:01;;;;;;;;;4.00;3.00;;;;;26.77;44.70;101510.00;5035885;28;45413;-80
2023/09/28 04:12:28;;;;;;;;;3.00;3.00;;;;;26.62;45.18;101479.72;5035784;28;45423;-79
2023/09/28 04:14:53;;;;;;;;;5.67;3.00;;;;;26.67;45.28;101487.16;5035445;28;46183;-80
2023/09/28 04:17:19;;;;;;;;;4.33;4.00;;;;;26.61;45.35;101485.25;5035520;28;45470;-80
2023/09/28 04:19:44;;;;;;;;;4.00;4.00;;;;;26.46;44.46;101456.03;5035613;28;45843;-80
2023/09/28 04:22:09;;;;;;;;;3.00;3.00;;;;;26.62;44.59;101485.06;5035300;28;45382;-80
2023/09/28 04:24:35;;;;;;;;;2.00;2.00;;;;;26.75;44.55;101504.84;5035285;28;46001;-80
2023/09/28 04:27:00;;;;;;;;;5.00;3.00;;;;;26.60;44.70;101478.25;5035416;28;45325;-80
2023/09/28 04:29:26;;;;;;;;;4.33;4.33;;;;;26.75;44.60;101504.84;5053765;28;45563;-80
2023/09/28 04:31:52;;;;;;;;;3.00;3.00;;;;;26.57;44.92;101473.34;5055695;28;45406;-79
2023/09/28 04:34:18;;;;;;;;;4.00;3.00;;;;;26.74;44.92;101503.19;5053911;28;48788;-79
2023/09/28 04:36:44;;;;;;;;;4.33;3.00;;;;;26.68;44.80;101496.78;5055002;28;45382;-79
2023/09/28 04:39:10;;;;;;;;;2.00;2.00;;;;;26.67;44.61;101503.16;5055369;28;45339;-79
2023/09/28 04:41:36;;;;;;;;;3.00;3.00;;;;;26.75;45.00;101518.19;5055306;28;45421;-79
2023/09/28 04:44:02;;;;;;;;;3.00;3.00;;;;;26.74;44.81;101530.72;5055493;28;46143;-79
2023/09/28 04:46:28;;;;;;;;;4.00;3.67;;;;;26.66;44.85;101517.53;5055152;28;45744;-79
2023/09/28 04:48:54;;;;;;;;;7.00;3.33;;;;;26.69;44.93;101526.97;5055259;28;45266;-79
2023/09/28 04:51:19;;;;;;;;;2.00;2.00;;;;;26.76;44.59;101527.00;5054960;28;45354;-79
2023/09/28 04:53:45;;;;;;;;;6.33;3.00;;;;;26.67;44.87;101519.19;5055043;28;45363;-79
2023/09/28 04:56:12;;;;;;;;;4.00;4.00;;;;;26.74;44.35;101532.56;5055367;28;45332;-79
2023/09/28 04:58:38;;;;;;;;;3.00;2.00;;;;;26.77;44.93;101542.84;5055389;28;45487;-79
2023/09/28 05:01:04;;;;;;;;;5.00;3.67;;;;;26.71;45.07;101530.28;5057099;28;45311;-79
2023/09/28 05:03:30;;;;;;;;;3.33;2.67;;;;;26.72;45.08;101531.94;5058441;28;45360;-79
2023/09/28 05:05:55;;;;;;;;;4.00;2.00;;;;;26.67;44.82;101529.84;5057844;28;45431;-79
2023/09/28 05:08:21;;;;;;;;;4.00;3.67;;;;;26.64;44.34;101535.59;5058564;28;45439;-79
2023/09/28 05:10:46;;;;;;;;;4.00;3.00;;;;;26.63;45.00;101539.25;5058531;28;45441;-80
2023/09/28 05:13:12;;;;;;;;;3.00;2.00;;;;;26.62;44.74;101530.41;5058383;28;45980;-79
2023/09/28 05:15:38;;;;;;;;;4.00;2.33;;;;;26.73;44.97;101550.41;5058329;28;45377;-78
2023/09/28 05:18:04;;;;;;;;;1.00;1.00;;;;;26.73;44.30;101553.09;5058414;28;45410;-79
2023/09/28 05:20:30;;;;;;;;;4.00;3.00;;;;;26.73;45.02;101549.59;5057967;28;45428;-79
2023/09/28 05:22:55;;;;;;;;;7.50;3.00;;;;;26.70;44.99;101533.97;5058005;28;47214;-79
2023/09/28 05:25:20;;;;;;;;;3.00;3.00;;;;;26.74;44.43;101543.22;5058163;28;45342;-76
2023/09/28 05:27:46;;;;;;;;;2.00;2.00;;;;;26.57;45.21;101524.84;5047160;28;45368;-79
2023/09/28 05:30:12;;;;;;;;;4.33;3.00;;;;;26.74;44.59;101554.75;5058115;28;45449;-75
2023/09/28 05:32:37;;;;;;;;;2.00;2.00;;;;;26.77;44.63;101555.38;5056530;28;46067;-78
2023/09/28 05:35:05;;;;;;;;;2.67;2.00;;;;;26.74;43.52;101562.75;5057623;28;45537;-79
2023/09/28 05:37:30;;;;;;;;;6.00;4.67;;;;;26.57;42.59;101538.19;5053947;28;45184;-78
2023/09/28 05:39:56;;;;;;;;;5.00;3.67;;;;;26.66;42.07;101562.91;5057039;28;45315;-74
2023/09/28 05:42:21;;;;;;;;;5.00;2.00;;;;;26.60;42.31;101561.00;5048410;28;46139;-76
2023/09/28 05:44:46;;;;;;;;;5.33;3.00;;;;;26.56;41.71;101565.91;5046129;28;45204;-73
2023/09/28 05:47:12;;;;;;;;;8.33;3.00;;;;;26.46;41.67;101558.25;5041535;28;45218;-73
2023/09/28 05:49:37;;;;;;;;;5.33;2.67;;;;;26.48;41.72;101561.53;5050480;28;45218;-73
2023/09/28 05:52:03;;;;;;;;;2.33;1.00;;;;;26.42;41.70;101559.59;5046798;28;45878;-73
2023/09/28 05:54:28;;;;;;;;;2.33;1.33;;;;;26.38;41.38;101566.34;5051421;28;45448;-73
2023/09/28 05:56:54;;;;;;;;;7.00;3.00;;;;;26.27;41.21;101552.50;5049933;28;45458;-73
2023/09/28 05:59:19;;;;;;;;;3.67;2.33;;;;;26.24;41.31;101563.56;5045908;28;45491;-73
2023/09/28 06:01:45;;;;;;;;;5.00;2.00;;;;;26.14;40.79;101561.22;5039794;28;45414;-75
2023/09/28 06:04:11;;;;;;;;;1.33;1.33;;;;;26.22;41.48;101567.44;5036542;28;45521;-73
2023/09/28 06:06:37;;;;;;;;;4.00;2.33;;;;;26.20;41.28;101564.97;5037383;28;45346;-74
2023/09/28 06:09:03;;;;;;;;;3.67;1.33;;;;;26.27;41.51;101567.69;5036280;28;45328;-74
2023/09/28 06:11:28;;;;;;;;;5.00;2.00;;;;;26.28;41.50;101575.47;5036854;28;45328;-74
2023/09/28 06:13:54;;;;;;;;;3.00;2.33;;;;;26.29;41.98;101568.31;5037250;28;45344;-74
2023/09/28 06:16:19;;;;;;;;;1.00;1.00;;;;;26.25;41.78;101556.38;5037228;28;45372;-74
2023/09/28 06:18:44;;;;;;;;;3.33;1.67;;;;;26.35;41.44;101574.72;5037028;28;45289;-74
2023/09/28 06:21:10;;;;;;;;;2.00;1.33;;;;;26.36;41.74;101571.84;5037215;28;46918;-73
2023/09/28 06:23:35;;;;;;;;;1.67;1.00;;;;;26.38;41.71;101580.53;5037174;28;45467;-74
2023/09/28 06:26:02;;;;;;;;;4.00;1.00;;;;;26.39;41.76;101581.31;5037098;28;45363;-73
2023/09/28 06:28:28;;;;;;;;;2.00;2.00;;;;;26.27;42.37;101560.50;5046121;28;45496;-74
2023/09/28 06:30:54;;;;;;;;;4.33;2.00;;;;;26.41;42.31;101589.97;5055800;28;46911;-73
2023/09/28 06:33:26;;;;;;;;;5.00;3.00;;;;;26.40;42.02;101577.66;5056426;28;45505;-73
2023/09/28 06:35:52;;;;;;;;;2.00;2.00;;;;;26.46;42.41;101590.25;5056745;28;45171;-73
2023/09/28 06:38:18;;;;;;;;;4.00;2.00;;;;;26.46;42.25;101592.09;5056585;28;45308;-73
2023/09/28 06:40:45;;;;;;;;;3.33;2.00;;;;;26.49;42.15;101605.06;5056975;28;45301;-73
2023/09/28 06:43:11;;;;;;;;;3.67;2.33;;;;;26.50;42.30;101610.19;5056757;28;45430;-73
2023/09/28 06:45:36;;;;;;;;;1.67;1.67;;;;;26.49;42.57;101618.41;5057072;28;45560;-73
2023/09/28 06:48:01;;;;;;;;;5.33;2.67;;;;;26.52;42.85;101623.34;5056626;28;45385;-72
2023/09/28 06:50:29;;;;;;;;;1.67;1.33;;;;;26.55;42.15;101636.28;5056737;28;45374;-73
2023/09/28 06:52:54;;;;;;;;;5.00;3.00;;;;;26.57;42.40;101626.25;5056825;28;45424;-73
2023/09/28 06:55:22;;;;;;;;;4.67;1.33;;;;;26.60;42.51;101611.69;5056848;28;45760;-73
2023/09/28 06:57:48;;;;;;;;;2.00;2.00;;;;;26.60;42.37;101601.84;5056745;28;45444;-73
2023/09/28 07:00:16;;;;;;;;;5.00;4.00;;;;;26.62;42.27;101615.03;5056448;28;46447;-74
2023/09/28 07:02:47;;;;;;;;;1.00;1.00;;;;;26.64;42.72;101610.31;5056219;28;45361;-73
2023/09/28 07:05:15;;;;;;;;;2.33;1.67;;;;;26.66;42.39;101616.28;5056534;28;45489;-73
2023/09/28 07:07:42;;;;;;;;;3.33;2.00;;;;;26.68;42.64;101624.91;5056537;28;45468;-73
2023/09/28 07:10:10;;;;;;;;;2.33;1.67;;;;;26.63;42.81;101617.47;5056361;28;46906;-73
2023/09/28 07:12:35;;;;;;;;;3.00;2.00;;;;;26.71;42.17;101615.69;5056415;28;45478;-73
2023/09/28 07:15:00;;;;;;;;;5.00;1.33;;;;;26.63;42.75;101605.97;5056476;28;45527;-73
2023/09/28 07:17:26;;;;;;;;;5.00;2.00;;;;;26.74;42.78;101616.13;5056112;28;45368;-73
2023/09/28 07:19:52;;;;;;;;;2.67;1.00;;;;;26.75;42.96;101622.31;5054939;28;47064;-73
2023/09/28 07:22:20;;;;;;;;;2.33;2.00;;;;;26.77;42.88;101630.94;5056106;28;45495;-73
2023/09/28 07:24:45;;;;;;;;;2.33;1.00;;;;;26.62;42.41;101593.66;5055818;28;45465;-73
2023/09/28 07:27:10;;;;;;;;;4.00;1.67;;;;;26.76;42.84;101613.25;5056279;28;45354;-73
2023/09/28 07:29:36;;;;;;;;;2.00;2.00;;;;;26.82;42.71;101615.16;5056000;28;47285;-73
2023/09/28 07:32:01;;;;;;;;;4.33;1.00;;;;;26.79;42.39;101612.88;5056055;28;45366;-73
2023/09/28 07:34:26;;;;;;;;;2.67;2.00;;;;;26.86;42.69;101626.25;5056368;28;45311;-73
2023/09/28 07:36:52;;;;;;;;;1.00;1.00;;;;;26.89;43.17;101631.22;5056192;28;45343;-73
2023/09/28 07:39:19;;;;;;;;;6.67;2.00;;;;;26.92;43.06;101635.34;5054539;28;53164;-73
2023/09/28 07:41:45;;;;;;;;;1.33;1.00;;;;;26.92;42.87;101633.50;5056045;28;45304;-73
2023/09/28 07:44:10;;;;;;;;;2.67;2.00;;;;;26.94;43.03;101655.50;5056004;28;45221;-73
2023/09/28 07:46:35;;;;;;;;;3.67;2.67;;;;;26.97;43.02;101659.63;5055663;28;45475;-73
2023/09/28 07:49:01;;;;;;;;;4.00;2.00;;;;;26.99;42.63;101662.09;5055663;28;51497;-73
2023/09/28 07:51:26;;;;;;;;;2.00;1.33;;;;;27.00;42.68;101666.41;5055983;28;45396;-73
2023/09/28 07:53:51;;;;;;;;;3.33;1.67;;;;;27.02;42.63;101675.06;5056082;28;45289;-73
2023/09/28 07:56:18;;;;;;;;;1.00;1.00;;;;;26.89;43.18;101667.75;5056005;28;45471;-73
2023/09/28 07:58:43;;;;;;;;;2.67;2.67;;;;;27.00;42.49;101688.63;5055679;28;46965;-73
2023/09/28 08:01:09;;;;;;;;;4.33;2.00;;;;;26.80;43.12;101653.75;5055443;28;45403;-73
2023/09/28 08:03:37;;;;;;;;;0.67;0.00;;;;;27.06;43.08;101697.69;5055644;28;45285;-74
2023/09/28 08:06:03;;;;;;;;;3.33;2.67;;;;;27.03;42.61;101688.22;5055869;28;45677;-72
2023/09/28 08:08:28;;;;;;;;;2.67;2.00;;;;;27.07;42.70;101700.16;5055297;28;46147;-73
2023/09/28 08:10:54;;;;;;;;;4.33;2.33;;;;;27.07;43.10;101713.50;5055497;28;45544;-72
2023/09/28 08:13:19;;;;;;;;;3.00;2.33;;;;;27.01;43.12;101700.94;5055735;28;45309;-73
2023/09/28 08:15:46;;;;;;;;;3.33;3.00;;;;;27.07;42.58;101685.97;5055223;28;45479;-73
2023/09/28 08:18:11;;;;;;;;;2.00;2.00;;;;;26.95;42.70;101669.69;5054073;28;46270;-73
2023/09/28 08:20:37;;;;;;;;;3.00;2.00;;;;;27.09;43.14;101686.59;5055703;28;45415;-73
2023/09/28 08:23:06;;;;;;;;;3.33;1.00;;;;;27.00;43.18;101669.09;5055833;28;45337;-73
2023/09/28 08:25:34;;;;;;;;;3.67;2.67;;;;;27.10;43.27;101674.09;5055523;28;45406;-73
2023/09/28 08:27:59;;;;;;;;;5.00;1.00;;;;;27.08;42.71;101674.28;5054963;28;47280;-73
2023/09/28 08:30:24;;;;;;;;;2.67;2.67;;;;;27.09;43.27;101672.44;5054795;28;46604;-73
2023/09/28 08:32:50;;;;;;;;;3.67;2.00;;;;;27.09;43.43;101673.25;5055509;28;45463;-73
2023/09/28 08:35:16;;;;;;;;;1.00;1.00;;;;;27.03;43.14;101669.53;5057719;28;45425;-73
2023/09/28 08:37:41;;;;;;;;;4.00;2.00;;;;;27.14;42.88;101694.09;5057303;28;48175;-73
2023/09/28 08:40:08;;;;;;;;;1.00;1.00;;;;;27.17;42.54;101704.34;5059015;28;45345;-73
2023/09/28 08:42:35;;;;;;;;;0.00;0.00;;;;;27.20;42.74;101697.81;5058907;28;45596;-73
2023/09/28 08:45:02;;;;;;;;;1.33;1.33;;;;;27.15;43.21;101691.22;5058539;28;45501;-73
2023/09/28 08:47:34;;;;;;;;;1.00;1.00;;;;;27.21;42.78;101694.94;5058574;28;45399;-73
2023/09/28 08:50:01;;;;;;;;;2.33;2.00;;;;;27.21;42.67;101705.63;5058545;28;45321;-73
2023/09/28 08:52:28;;;;;;;;;2.00;2.00;;;;;27.21;42.80;101716.31;5058697;28;45397;-73
2023/09/28 08:54:55;;;;;;;;;2.00;2.00;;;;;27.21;42.56;101716.31;5058681;28;45387;-73
2023/09/28 08:57:21;;;;;;;;;2.33;2.00;;;;;27.19;43.14;101707.69;5058457;28;47035;-73
2023/09/28 08:59:48;;;;;;;;;3.00;1.00;;;;;27.09;43.29;101686.59;5056965;28;45935;-73
2023/09/28 09:02:15;;;;;;;;;2.00;1.00;;;;;27.21;43.36;101704.81;5058762;28;45336;-73
2023/09/28 09:04:42;;;;;;;;;2.67;2.00;;;;;27.26;43.05;101699.69;5058235;28;45457;-73
2023/09/28 09:07:08;;;;;;;;;3.33;1.00;;;;;27.24;42.99;101693.72;5058290;28;46758;-73
2023/09/28 09:09:35;;;;;;;;;2.67;2.00;;;;;27.15;43.00;101671.69;5058341;28;45384;-73
2023/09/28 09:12:07;;;;;;;;;3.67;2.00;;;;;27.28;42.99;101698.50;5058067;28;45276;-73
2023/09/28 09:14:33;;;;;;;;;2.67;1.00;;;;;27.28;42.91;101690.47;5058543;28;45384;-73
2023/09/28 09:16:58;;;;;;;;;1.00;1.00;;;;;27.20;42.52;101671.91;5058091;28;45311;-73
2023/09/28 09:19:32;;;;;;;;;2.33;2.00;;;;;27.26;42.59;101676.50;5058244;28;45471;-73
2023/09/28 09:21:57;;;;;;;;;3.00;1.00;;;;;27.28;42.51;101679.78;5058517;28;45426;-73
2023/09/28 09:24:23;;;;;;;;;2.00;2.00;;;;;27.32;43.07;101680.22;5058391;28;45361;-73
2023/09/28 09:26:52;;;;;;;;;2.00;2.00;;;;;27.25;43.06;101666.81;5057563;28;45993;-73
2023/09/28 09:29:18;;;;;;;;;3.00;3.00;;;;;27.33;42.56;101679.19;5058013;28;45409;-73
2023/09/28 09:31:47;;;;;;;;;1.67;1.67;;;;;27.29;43.07;101672.59;5058270;28;45343;-73
2023/09/28 09:34:17;;;;;;;;;3.00;2.00;;;;;27.34;42.96;101688.03;5058335;28;45334;-73
2023/09/28 09:36:55;;;;;;;;;2.00;2.00;;;;;27.29;42.51;101662.75;5057868;28;46253;-73
2023/09/28 09:39:23;;;;;;;;;2.33;1.67;;;;;27.33;42.96;101646.31;5057811;28;45426;-73
2023/09/28 09:41:49;;;;;;;;;4.67;1.67;;;;;27.28;42.59;101641.56;5057607;28;45362;-74
2023/09/28 09:44:19;;;;;;;;;1.67;1.67;;;;;27.33;43.13;101641.78;5058080;28;45313;-73
2023/09/28 09:46:49;;;;;;;;;2.00;1.33;;;;;27.33;42.49;101651.66;5056846;28;46472;-73
2023/09/28 09:49:16;;;;;;;;;2.00;1.00;;;;;27.33;43.16;101659.66;5057768;28;45289;-73
2023/09/28 09:51:45;;;;;;;;;2.00;1.00;;;;;27.33;42.73;101654.31;5057853;28;45397;-73
2023/09/28 09:54:13;;;;;;;;;1.00;1.00;;;;;27.25;42.97;101640.09;5057735;28;45457;-73
2023/09/28 09:56:42;;;;;;;;;1.33;1.00;;;;;27.27;43.02;101639.91;5057179;28;47115;-73
2023/09/28 09:59:12;;;;;;;;;2.00;2.00;;;;;27.31;42.88;101638.50;5057478;28;45261;-73
2023/09/28 10:01:40;;;;;;;;;3.00;2.00;;;;;27.31;42.72;101629.66;5057822;28;45429;-73
2023/09/28 10:04:12;;;;;;;;;2.00;2.00;;;;;27.22;42.59;101616.44;5057436;28;45442;-73
2023/09/28 10:06:39;;;;;;;;;1.33;1.33;;;;;27.17;42.97;101624.22;5057435;28;47241;-73
2023/09/28 10:09:10;;;;;;;;;1.00;1.00;;;;;27.17;42.61;101618.88;5057498;28;45266;-73
2023/09/28 10:11:38;;;;;;;;;2.00;2.00;;;;;27.28;42.91;101646.91;5057330;28;45369;-73
2023/09/28 10:14:05;;;;;;;;;2.33;2.00;;;;;27.27;42.62;101653.28;5057482;28;45393;-73
2023/09/28 10:16:34;;;;;;;;;2.00;1.00;;;;;27.24;42.85;101653.66;5057086;28;47372;-73
2023/09/28 10:19:04;;;;;;;;;3.33;2.00;;;;;27.27;42.52;101664.75;5057174;28;45396;-73
2023/09/28 10:21:36;;;;;;;;;3.00;1.67;;;;;27.27;42.81;101661.28;5057327;28;45465;-73
2023/09/28 10:24:12;;;;;;;;;1.00;1.00;;;;;27.24;42.74;101665.19;5057318;28;45391;-73
2023/09/28 10:26:42;;;;;;;;;3.33;2.33;;;;;27.18;42.67;101664.13;5056607;28;47699;-73
2023/09/28 10:29:09;;;;;;;;;5.00;1.00;;;;;27.23;42.88;101668.03;5057052;28;45317;-73
2023/09/28 10:31:41;;;;;;;;;2.00;2.00;;;;;27.20;43.20;101665.75;5057262;28;45419;-73
2023/09/28 10:34:08;;;;;;;;;1.33;1.33;;;;;27.24;42.56;101662.50;5057250;28;45420;-73
2023/09/28 10:36:35;;;;;;;;;1.00;1.00;;;;;27.24;42.65;101662.50;5056973;28;47165;-73
2023/09/28 10:39:15;;;;;;;;;1.33;1.33;;;;;27.18;42.71;101647.25;5056386;28;45398;-73
2023/09/28 10:42:11;;;;;;;;;3.00;1.33;;;;;27.23;42.97;101652.84;5057012;28;45438;-73
2023/09/28 10:44:46;;;;;;;;;2.00;2.00;;;;;27.16;43.02;101631.44;5052086;28;45248;-72
2023/09/28 10:47:11;;;;;;;;;1.00;1.00;;;;;27.24;43.18;101651.81;5056757;28;46925;-73
2023/09/28 10:49:36;;;;;;;;;1.00;1.00;;;;;27.14;43.19;101616.63;5056811;28;45376;-73
2023/09/28 10:52:02;;;;;;;;;1.00;1.00;;;;;27.26;42.61;101635.59;5057043;28;46001;-73
2023/09/28 10:54:27;;;;;;;;;1.67;0.00;;;;;27.06;43.40;101605.03;5056656;28;45345;-73
2023/09/28 10:56:53;;;;;;;;;3.67;2.00;;;;;27.27;42.59;101638.06;5056485;28;46938;-73
2023/09/28 10:59:19;;;;;;;;;2.33;2.00;;;;;27.27;42.97;101632.72;5055630;28;45440;-73
2023/09/28 11:01:46;;;;;;;;;2.00;2.00;;;;;27.28;43.14;101620.19;5056866;28;45378;-73
2023/09/28 11:04:13;;;;;;;;;1.00;1.00;;;;;27.27;42.60;101619.34;5056487;28;45605;-73
2023/09/28 11:06:39;;;;;;;;;0.33;0.33;;;;;27.29;43.19;101621.84;5056701;28;46942;-73
2023/09/28 11:09:07;;;;;;;;;1.00;1.00;;;;;27.29;43.24;101627.19;5056281;28;45403;-73
2023/09/28 11:11:33;;;;;;;;;2.33;1.00;;;;;27.29;43.18;101628.03;5056632;28;45245;-73
2023/09/28 11:13:59;;;;;;;;;2.33;1.00;;;;;27.27;42.94;101622.03;5056626;28;45244;-73
2023/09/28 11:16:26;;;;;;;;;1.00;1.00;;;;;27.29;42.50;101624.50;5056370;28;46218;-73
2023/09/28 11:18:53;;;;;;;;;1.00;1.00;;;;;27.29;43.18;101629.84;5056402;28;45454;-73
2023/09/28 11:21:18;;;;;;;;;1.67;1.00;;;;;27.31;42.87;101632.31;5056607;28;45439;-73